Ho Chi Minh City, Vietnam
Current Conditions -  °F | °C
As of 9:00 AM on Friday 21 Nov 2014 (Local Time) from VVTS Reporting Station
Scattered Clouds Scattered Clouds  
Wind Chill: 84°   Ceiling: Unl
Heat Index: 92°   Visibility: 4mi
Dew Point: 75°   Wind: 7mph
Humidity: 74%   Direction: 120°ESE
Pressure: 29.85"   Gusts: NA
Location:  10.78°N, 106.69°E
Report Text: VVTS 210200Z 12006KT 080V140 6000 FEW017 SCT040 29/24 Q1011 NOSIG
Loading
Personal Weather Stations






























Interactive Weather Map New forecast layout! Learn more

10-Day Weather Forecast

Advertisements
Track Severe Weather on mobile